Time;durP1;ratioP1;P1;durP2;ratioP2;P2;SDS_P1;SDS_P2;PMS_P1;PMS_P2;Temp;Humidity;BMP_temperature;BMP_pressure;BME280_temperature;BME280_humidity;BME280_pressure;Samples;Min_cycle;Max_cycle;Signal;HPM_P1;HPM_P2
2022/01/14 00:02:29;;;;;;;0.60;0.60;;;;;;;2.57;77.80;103209.63;5153242;28;20045;-82
2022/01/14 00:04:59;;;;;;;0.90;0.90;;;;;;;2.65;76.95;103205.69;5144175;28;20026;-81
2022/01/14 00:07:30;;;;;;;1.05;1.05;;;;;;;2.55;76.99;103200.88;5175434;28;20029;-80
2022/01/14 00:10:01;;;;;;;0.45;0.45;;;;;;;2.61;77.34;103201.16;5155862;28;20096;-81
2022/01/14 00:12:39;;;;;;;2.22;2.10;;;;;;;2.48;77.12;103198.00;5138805;28;20065;-81
2022/01/14 00:15:24;;;;;;;1.88;1.67;;;;;;;2.42;77.76;103187.38;5136988;28;20049;-81
2022/01/14 00:17:55;;;;;;;1.02;1.02;;;;;;;2.46;77.47;103193.59;5153939;28;20037;-81
2022/01/14 00:20:25;;;;;;;1.50;1.45;;;;;;;2.27;77.05;103192.72;5154249;28;20701;-80
2022/01/14 00:22:56;;;;;;;0.63;0.63;;;;;;;2.50;77.50;103188.63;5155346;28;20049;-81
2022/01/14 00:33:43;;;;;;;1.55;1.48;;;;;;;2.48;77.14;103169.50;5167748;28;20018;-81
2022/01/14 00:36:14;;;;;;;1.08;1.02;;;;;;;2.46;77.34;103170.25;5135485;28;20044;-81
2022/01/14 00:38:45;;;;;;;6.07;2.67;;;;;;;2.40;77.24;103165.69;5168992;28;20117;-80
2022/01/14 00:41:18;;;;;;;0.75;0.73;;;;;;;2.47;76.80;103161.69;5137344;28;20045;-81
2022/01/14 00:43:52;;;;;;;1.23;1.23;;;;;;;2.43;76.64;103162.34;5154188;28;20026;-80
2022/01/14 00:46:23;;;;;;;2.00;1.45;;;;;;;2.47;77.42;103154.78;5136366;28;20046;-81
2022/01/14 00:48:56;;;;;;;2.25;2.15;;;;;;;2.31;77.62;103157.47;5153844;28;20167;-80
2022/01/14 00:51:27;;;;;;;0.90;0.90;;;;;;;2.34;77.87;103157.63;5136094;28;20052;-80
2022/01/14 00:53:58;;;;;;;1.10;1.10;;;;;;;2.40;77.65;103152.72;5157652;28;20026;-81
2022/01/14 00:56:47;;;;;;;2.20;1.83;;;;;;;2.50;77.02;103165.28;5152864;28;20129;-81
2022/01/14 00:59:18;;;;;;;2.47;2.28;;;;;;;2.47;77.17;103170.31;5138438;28;20022;-80
2022/01/14 01:01:51;;;;;;;1.33;1.33;;;;;;;2.47;77.03;103167.72;5171628;28;20033;-80
2022/01/14 01:04:27;;;;;;;;;;;;;;;2.48;76.68;103172.09;5152997;28;20034;-80
2022/01/14 01:07:01;;;;;;;2.05;1.95;;;;;;;2.45;76.93;103174.53;5149936;28;19913;-80
2022/01/14 01:09:32;;;;;;;1.38;1.33;;;;;;;2.48;76.37;103182.47;5153247;28;20030;-82
2022/01/14 01:14:52;;;;;;;0.90;0.90;;;;;;;2.50;76.77;103178.25;5179209;28;20084;-81
2022/01/14 01:17:31;;;;;;;0.75;0.75;;;;;;;2.43;76.82;103173.59;5162996;28;20038;-81
2022/01/14 01:20:12;;;;;;;0.93;0.93;;;;;;;2.45;76.20;103176.25;5130192;28;20034;-81
2022/01/14 01:22:48;;;;;;;2.33;2.10;;;;;;;2.50;76.07;103170.47;5139306;28;20090;-81
2022/01/14 01:25:22;;;;;;;1.88;1.77;;;;;;;2.50;76.40;103166.97;5133344;28;20021;-81
2022/01/14 01:27:54;;;;;;;0.60;0.60;;;;;;;2.47;76.27;103166.84;5151324;28;20084;-81
2022/01/14 01:33:04;;;;;;;3.75;2.15;;;;;;;2.46;76.37;103167.66;5146607;28;20030;-80
2022/01/14 01:35:37;;;;;;;1.80;1.70;;;;;;;2.43;76.40;103159.75;5163984;28;20041;-80
2022/01/14 01:38:15;;;;;;;2.40;2.20;;;;;;;2.45;76.19;103161.59;5131590;28;20022;-80
2022/01/14 01:40:48;;;;;;;1.20;1.20;;;;;;;2.43;75.82;103163.25;5155182;28;20092;-80
2022/01/14 01:43:21;;;;;;;32.15;3.33;;;;;;;2.44;76.35;103158.94;5167706;28;20034;-80
2022/01/14 01:45:54;;;;;;;2.15;2.05;;;;;;;2.39;76.03;103160.44;5147524;28;20229;-80
2022/01/14 01:48:24;;;;;;;0.95;0.95;;;;;;;2.43;76.13;103168.41;5166847;28;20440;-80
2022/01/14 01:50:57;;;;;;;1.35;1.27;;;;;;;2.40;76.09;103163.09;5134268;28;20080;-80
2022/01/14 01:53:28;;;;;;;1.67;1.58;;;;;;;2.42;75.88;103158.88;5161912;28;20014;-80
2022/01/14 01:56:00;;;;;;;1.15;1.15;;;;;;;2.32;76.00;103138.53;5133370;28;20053;-80
2022/01/14 01:58:31;;;;;;;1.08;1.08;;;;;;;2.32;76.07;103141.13;5134055;28;20053;-79
2022/01/14 02:01:08;;;;;;;2.88;1.73;;;;;;;2.32;75.71;103154.06;5129361;28;20053;-80
2022/01/14 02:03:39;;;;;;;2.10;2.00;;;;;;;2.34;75.78;103155.91;5153396;28;20042;-80
2022/01/14 02:06:09;;;;;;;1.88;1.77;;;;;;;2.32;75.52;103156.66;5136053;28;20129;-80
2022/01/14 02:08:40;;;;;;;1.95;1.85;;;;;;;2.30;75.64;103153.09;5153851;28;20061;-80
2022/01/14 02:11:11;;;;;;;0.80;0.80;;;;;;;2.28;75.89;103149.56;5138800;28;20038;-80
2022/01/14 02:13:43;;;;;;;2.47;2.38;;;;;;;2.22;76.41;103150.19;5154104;28;20524;-80
2022/01/14 02:19:00;;;;;;;1.05;1.05;;;;;;;2.27;75.73;103155.56;5154007;28;20049;-80
2022/01/14 02:24:33;;;;;;;0.50;0.50;;;;;;;2.23;75.50;103151.97;5151751;28;20045;-80
2022/01/14 02:27:04;;;;;;;0.93;0.93;;;;;;;2.24;75.42;103150.25;5160754;28;20045;-80
2022/01/14 02:29:35;;;;;;;2.85;2.00;;;;;;;2.15;75.44;103143.81;5168532;28;20064;-80
2022/01/14 02:32:08;;;;;;;1.17;1.17;;;;;;;2.16;75.36;103148.19;5152033;28;20038;-80
2022/01/14 02:34:39;;;;;;;1.23;1.23;;;;;;;2.11;75.53;103149.66;5148318;28;20024;-80
2022/01/14 02:37:09;;;;;;;1.17;1.17;;;;;;;2.17;75.92;103149.06;5151557;28;20525;-79
2022/01/14 02:39:40;;;;;;;0.95;0.95;;;;;;;2.16;75.24;103144.69;5169945;28;20133;-79
2022/01/14 02:42:10;;;;;;;1.63;1.52;;;;;;;2.14;75.68;103138.56;5136355;28;20124;-79
2022/01/14 02:44:48;;;;;;;1.35;1.35;;;;;;;2.12;75.48;103146.25;5187324;28;20033;-79
2022/01/14 02:47:19;;;;;;;1.42;1.33;;;;;;;2.11;75.53;103139.28;5151782;28;20069;-79
2022/01/14 02:49:49;;;;;;;0.60;0.60;;;;;;;2.14;75.46;103131.69;5151895;28;20112;-79
2022/01/14 02:52:42;;;;;;;1.60;1.20;;;;;;;2.13;75.51;103129.91;5168805;28;20105;-80
2022/01/14 02:55:19;;;;;;;1.05;1.05;;;;;;;2.11;75.63;103130.66;5134807;28;20049;-80
2022/01/14 02:57:55;;;;;;;1.58;1.48;;;;;;;2.11;74.96;103134.09;5151622;28;20041;-79
2022/01/14 03:00:32;;;;;;;0.93;0.90;;;;;;;2.11;75.24;103134.09;5168104;28;20614;-79
2022/01/14 03:03:06;;;;;;;1.98;1.85;;;;;;;2.11;75.49;103131.53;5135767;28;20026;-79
2022/01/14 03:05:39;;;;;;;0.88;0.88;;;;;;;2.06;75.30;103129.56;5135281;28;20042;-79
2022/01/14 03:08:10;;;;;;;0.68;0.68;;;;;;;2.01;75.52;103125.03;5152311;28;20038;-79
2022/01/14 03:10:41;;;;;;;0.95;0.95;;;;;;;2.06;75.01;103119.19;5150844;28;20041;-80
2022/01/14 03:13:12;;;;;;;0.47;0.47;;;;;;;2.04;75.42;103116.50;5132358;28;20026;-80
2022/01/14 03:15:42;;;;;;;6.75;3.95;;;;;;;2.04;75.14;103122.59;5148993;28;20029;-80
2022/01/14 03:18:21;;;;;;;0.50;0.50;;;;;;;2.02;75.50;103113.00;5135298;28;20037;-80
2022/01/14 03:21:01;;;;;;;1.02;1.02;;;;;;;1.92;75.96;103105.59;5151974;28;20042;-79
2022/01/14 03:23:32;;;;;;;1.15;1.15;;;;;;;1.99;75.32;103110.25;5138673;28;20084;-80
2022/01/14 03:26:02;;;;;;;2.38;1.88;;;;;;;1.98;75.42;103113.63;5133824;28;20061;-79
2022/01/14 03:28:33;;;;;;;0.60;0.60;;;;;;;1.96;74.97;103112.69;5152655;28;20069;-80
2022/01/14 03:31:04;;;;;;;5.45;1.92;;;;;;;1.98;75.16;103113.63;5151960;28;20149;-79
2022/01/14 03:33:35;;;;;;;2.00;1.80;;;;;;;1.93;75.37;103112.56;5135423;28;20032;-79
2022/01/14 03:36:07;;;;;;;3.42;1.52;;;;;;;1.93;75.43;103108.25;5168904;28;20069;-79
2022/01/14 03:38:38;;;;;;;2.13;1.77;;;;;;;1.93;75.19;103104.78;5172831;28;20706;-79
2022/01/14 03:41:08;;;;;;;11.38;2.47;;;;;;;1.89;75.31;103096.84;5170580;28;20057;-79
2022/01/14 03:43:41;;;;;;;2.75;2.60;;;;;;;1.86;75.76;103088.06;5138937;28;20037;-79
2022/01/14 03:46:14;;;;;;;7.38;3.75;;;;;;;1.84;75.32;103082.81;5167884;28;20038;-79
2022/01/14 03:48:45;;;;;;;1.45;1.40;;;;;;;1.77;75.65;103080.75;5137197;28;20038;-79
2022/01/14 03:51:16;;;;;;;2.00;1.85;;;;;;;1.82;75.13;103084.44;5137269;28;20042;-80
2022/01/14 03:53:48;;;;;;;1.10;1.08;;;;;;;1.81;75.80;103080.09;5153995;28;20022;-79
2022/01/14 03:56:18;;;;;;;2.72;2.63;;;;;;;1.83;75.40;103080.13;5138788;28;20057;-79
2022/01/14 03:58:49;;;;;;;1.00;1.00;;;;;;;1.87;74.67;103077.78;5155500;28;20559;-79
2022/01/14 04:01:20;;;;;;;2.33;2.22;;;;;;;1.77;75.42;103075.59;5156875;28;20128;-80
2022/01/14 04:03:56;;;;;;;0.70;0.70;;;;;;;1.79;74.99;103067.88;5157024;28;20026;-79
2022/01/14 04:06:28;;;;;;;2.58;2.47;;;;;;;1.80;74.97;103074.84;5136647;28;20046;-80
2022/01/14 04:08:59;;;;;;;0.60;0.60;;;;;;;1.79;74.48;103073.94;5158960;28;20030;-79
2022/01/14 04:11:30;;;;;;;1.20;1.20;;;;;;;1.76;74.99;103067.72;5136399;28;20038;-79
2022/01/14 04:16:51;;;;;;;1.38;1.35;;;;;;;1.72;75.45;103071.88;5153417;28;20088;-79
2022/01/14 04:19:27;;;;;;;0.50;0.50;;;;;;;1.74;75.03;103067.66;5139562;28;20034;-79
2022/01/14 04:22:00;;;;;;;3.38;3.17;;;;;;;1.68;75.10;103059.63;5154445;28;20070;-79
2022/01/14 04:24:33;;;;;;;2.47;1.70;;;;;;;1.68;75.32;103064.78;5156372;28;20026;-79
2022/01/14 04:27:04;;;;;;;0.55;0.55;;;;;;;1.72;74.95;103064.09;5167671;28;20065;-79
2022/01/14 04:29:35;;;;;;;0.82;0.82;;;;;;;1.67;75.02;103063.03;5154129;28;20057;-79
2022/01/14 04:32:06;;;;;;;0.60;0.60;;;;;;;1.61;75.70;103057.56;5154160;28;20630;-80
2022/01/14 04:34:36;;;;;;;0.43;0.43;;;;;;;1.51;75.79;103051.94;5152990;28;20037;-79
2022/01/14 04:37:07;;;;;;;1.27;1.25;;;;;;;1.57;75.38;103052.22;5168878;28;20069;-80
2022/01/14 04:39:37;;;;;;;2.58;2.45;;;;;;;1.55;75.37;103052.97;5152199;28;20103;-80
2022/01/14 04:42:08;;;;;;;1.65;1.58;;;;;;;1.61;75.09;103047.22;5169225;28;20040;-80
2022/01/14 04:44:39;;;;;;;0.57;0.57;;;;;;;1.63;75.18;103050.72;5169031;28;20049;-80
2022/01/14 04:47:16;;;;;;;1.33;1.27;;;;;;;1.59;75.25;103054.00;5165871;28;20038;-80
2022/01/14 04:49:46;;;;;;;1.70;1.60;;;;;;;1.61;75.28;103052.38;5135599;28;20115;-80
2022/01/14 04:52:17;;;;;;;1.92;1.83;;;;;;;1.56;74.76;103047.00;5135056;28;20045;-79
2022/01/14 04:54:48;;;;;;;1.00;1.00;;;;;;;1.59;75.11;103043.66;5151272;28;20084;-79
2022/01/14 04:57:21;;;;;;;1.00;0.93;;;;;;;1.56;74.96;103039.22;5131666;28;20571;-80
2022/01/14 04:59:54;;;;;;;0.43;0.43;;;;;;;1.55;75.15;103043.50;5153049;28;20597;-80
2022/01/14 05:02:25;;;;;;;0.57;0.57;;;;;;;1.52;75.23;103038.19;5169086;28;20076;-80
2022/01/14 05:04:58;;;;;;;2.10;1.95;;;;;;;1.55;74.68;103038.31;5151379;28;20104;-79
2022/01/14 05:07:28;;;;;;;2.05;1.95;;;;;;;1.55;74.76;103038.31;5135426;28;20125;-79
2022/01/14 05:12:38;;;;;;;1.60;1.50;;;;;;;1.49;75.30;103032.84;5167135;28;20041;-80
2022/01/14 05:15:11;;;;;;;1.67;1.58;;;;;;;1.46;75.08;103030.13;5167966;28;20029;-80
2022/01/14 05:17:42;;;;;;;0.85;0.85;;;;;;;1.41;74.80;103037.66;5157037;28;20022;-80
2022/01/14 05:20:13;;;;;;;3.20;3.03;;;;;;;1.36;74.84;103030.50;5155446;28;20062;-80
2022/01/14 05:22:46;;;;;;;2.67;2.50;;;;;;;1.42;74.94;103041.16;5162275;28;20049;-79
2022/01/14 05:25:17;;;;;;;2.03;1.20;;;;;;;1.39;75.04;103034.13;5155805;28;20037;-80
2022/01/14 05:27:48;;;;;;;1.48;1.48;;;;;;;1.39;74.87;103030.63;5151133;28;20018;-80
2022/01/14 05:30:18;;;;;;;0.77;0.77;;;;;;;1.34;74.78;103042.47;5167911;28;20026;-79
2022/01/14 05:32:53;;;;;;;0.30;0.30;;;;;;;1.36;75.18;103043.44;5152580;28;20036;-80
2022/01/14 05:35:25;;;;;;;1.30;1.30;;;;;;;1.39;74.95;103043.56;5149632;28;20092;-80
2022/01/14 05:37:56;;;;;;;2.13;2.03;;;;;;;1.33;75.29;103035.53;5151987;28;20029;-80
2022/01/14 05:40:28;;;;;;;1.35;1.33;;;;;;;1.38;74.74;103039.22;5166647;28;20610;-81
2022/01/14 05:42:59;;;;;;;0.47;0.47;;;;;;;1.39;74.75;103051.34;5153538;28;20567;-81
2022/01/14 05:45:29;;;;;;;3.22;2.55;;;;;;;1.35;74.98;103049.44;5133822;28;20052;-81
2022/01/14 05:48:00;;;;;;;1.95;1.85;;;;;;;1.36;74.95;103046.03;5151045;28;20033;-81
2022/01/14 05:50:30;;;;;;;1.17;1.17;;;;;;;1.35;74.76;103039.09;5147144;28;20037;-81
2022/01/14 05:53:01;;;;;;;2.15;2.05;;;;;;;1.33;74.67;103044.16;5163826;28;20038;-81
2022/01/14 05:55:32;;;;;;;1.40;1.40;;;;;;;1.32;74.23;103038.91;5135812;28;20042;-81
2022/01/14 05:58:03;;;;;;;1.67;1.58;;;;;;;1.33;74.46;103040.69;5152110;28;20026;-81
2022/01/14 06:00:33;;;;;;;6.05;3.28;;;;;;;1.33;74.70;103030.34;5133750;28;20049;-81
2022/01/14 06:03:04;;;;;;;4.22;3.15;;;;;;;1.32;74.31;103038.91;5149472;28;20030;-81
2022/01/14 06:05:34;;;;;;;1.48;1.38;;;;;;;1.29;74.14;103038.75;5153262;28;20616;-80
2022/01/14 06:08:08;;;;;;;7.15;3.13;;;;;;;1.21;74.99;103041.00;5153565;28;20109;-80
2022/01/14 06:10:38;;;;;;;1.95;1.85;;;;;;;1.21;74.59;103041.88;5169719;28;20429;-81
2022/01/14 06:13:09;;;;;;;4.93;3.22;;;;;;;1.17;74.65;103034.78;5154125;28;20037;-81
2022/01/14 06:15:47;;;;;;;1.95;1.85;;;;;;;1.22;74.52;103043.63;5150262;28;20058;-82
2022/01/14 06:18:18;;;;;;;0.90;0.90;;;;;;;1.23;74.30;103045.41;5152040;28;20421;-80
2022/01/14 06:20:48;;;;;;;6.43;2.15;;;;;;;1.20;74.21;103045.25;5135986;28;20034;-80
2022/01/14 06:23:19;;;;;;;0.90;0.90;;;;;;;1.20;74.46;103041.78;5153911;28;20045;-81
2022/01/14 06:25:50;;;;;;;1.40;1.20;;;;;;;1.19;75.26;103034.84;5140308;28;20056;-80
2022/01/14 06:28:20;;;;;;;1.35;1.30;;;;;;;1.19;74.44;103033.16;5133935;28;20040;-80
2022/01/14 06:30:51;;;;;;;2.05;1.60;;;;;;;1.17;74.63;103039.94;5164806;28;20788;-81
2022/01/14 06:33:21;;;;;;;1.30;1.30;;;;;;;1.20;74.62;103049.56;5133923;28;20109;-81
2022/01/14 06:35:52;;;;;;;1.75;1.48;;;;;;;1.21;74.34;103051.34;5162594;28;20583;-80
2022/01/14 06:38:22;;;;;;;1.15;1.15;;;;;;;1.15;74.88;103046.75;5153001;28;20029;-81
2022/01/14 06:40:53;;;;;;;2.25;2.13;;;;;;;1.15;75.08;103046.75;5151954;28;20062;-82
2022/01/14 06:43:26;;;;;;;0.70;0.70;;;;;;;1.14;74.53;103052.72;5167714;28;20036;-81
2022/01/14 06:45:57;;;;;;;1.58;1.48;;;;;;;1.15;74.55;103053.63;5150159;28;20052;-81
2022/01/14 06:48:29;;;;;;;1.23;1.23;;;;;;;1.08;74.68;103049.84;5152176;28;20054;-81
2022/01/14 06:50:59;;;;;;;1.25;1.25;;;;;;;1.11;74.57;103044.84;5151926;28;20104;-81
2022/01/14 06:53:30;;;;;;;0.40;0.40;;;;;;;1.07;74.44;103055.81;5151487;28;20722;-81
2022/01/14 06:56:01;;;;;;;1.05;1.05;;;;;;;1.07;74.39;103035.13;5158457;28;20060;-81
2022/01/14 06:58:31;;;;;;;0.77;0.77;;;;;;;1.08;74.80;103039.50;5152722;28;20036;-81
2022/01/14 07:01:02;;;;;;;1.15;1.13;;;;;;;1.09;74.25;103036.09;5150457;28;20041;-81
2022/01/14 07:03:33;;;;;;;1.85;1.73;;;;;;;1.06;74.49;103028.19;5149122;28;20037;-81
2022/01/14 07:06:04;;;;;;;1.30;1.23;;;;;;;1.06;74.92;103025.59;5126333;28;20582;-82
2022/01/14 07:08:35;;;;;;;1.45;1.35;;;;;;;1.05;74.91;103024.72;5130766;28;20072;-82
2022/01/14 07:11:06;;;;;;;1.00;1.00;;;;;;;1.06;74.38;103020.44;5146144;28;20057;-81
2022/01/14 07:13:37;;;;;;;1.67;1.58;;;;;;;1.03;74.80;103020.28;5132242;28;20510;-81
2022/01/14 07:16:09;;;;;;;2.08;1.98;;;;;;;1.03;75.06;103028.06;5126805;28;20081;-81
2022/01/14 07:18:40;;;;;;;1.80;1.70;;;;;;;1.03;74.98;103021.16;5147575;28;20029;-80
2022/01/14 07:21:10;;;;;;;2.42;2.30;;;;;;;1.08;74.71;103018.81;5146684;28;20041;-83
2022/01/14 07:23:41;;;;;;;0.73;0.73;;;;;;;1.10;74.84;103017.19;5148803;28;20033;-83
2022/01/14 07:26:12;;;;;;;1.65;1.55;;;;;;;1.07;75.22;103027.38;5147036;28;20034;-82
2022/01/14 07:28:42;;;;;;;1.45;1.40;;;;;;;1.04;75.42;103022.03;5136930;28;20392;-82
2022/01/14 07:31:13;;;;;;;1.83;1.75;;;;;;;1.05;75.27;103032.47;5137849;28;20037;-81
2022/01/14 07:33:43;;;;;;;1.23;1.23;;;;;;;1.09;75.01;103034.38;5151972;28;20029;-80
2022/01/14 07:36:17;;;;;;;1.25;1.25;;;;;;;1.10;75.21;103024.94;5129493;28;20151;-78
2022/01/14 07:38:47;;;;;;;0.95;0.95;;;;;;;1.09;75.37;103038.69;5146213;28;20080;-80
2022/01/14 07:41:18;;;;;;;2.90;2.70;;;;;;;1.10;75.42;103049.09;5144005;28;20095;-78
2022/01/14 07:43:51;;;;;;;2.75;2.55;;;;;;;1.10;75.03;103043.94;5162881;28;20030;-78
2022/01/14 07:46:21;;;;;;;6.13;3.22;;;;;;;1.08;75.39;103036.91;5159797;28;20034;-80
2022/01/14 07:48:52;;;;;;;1.10;1.10;;;;;;;1.13;75.68;103032.84;5129397;28;20507;-81
2022/01/14 07:51:23;;;;;;;1.80;1.70;;;;;;;1.12;75.50;103041.41;5148017;28;20033;-80
2022/01/14 07:54:04;;;;;;;1.00;1.00;;;;;;;1.11;75.63;103044.84;5162521;28;20018;-80
2022/01/14 07:56:38;;;;;;;1.08;1.08;;;;;;;1.16;75.73;103045.06;5143466;28;20038;-79
2022/01/14 07:59:08;;;;;;;2.15;2.05;;;;;;;1.17;75.77;103050.28;5138698;28;20025;-79
2022/01/14 08:01:40;;;;;;;4.03;3.70;;;;;;;1.19;75.61;103038.34;5158378;28;20053;-79
2022/01/14 08:04:13;;;;;;;0.82;0.82;;;;;;;1.23;76.25;103045.41;5176135;28;20041;-80
2022/01/14 08:06:49;;;;;;;1.02;1.02;;;;;;;1.25;75.65;103048.97;5143292;28;20049;-83
2022/01/14 08:09:20;;;;;;;1.88;1.73;;;;;;;1.29;75.87;103038.75;5163533;28;20088;-79
2022/01/14 08:11:54;;;;;;;2.78;2.58;;;;;;;1.31;75.71;103050.97;5162848;28;20217;-80
2022/01/14 08:14:24;;;;;;;;;;;;;;;1.30;75.77;103046.63;5147540;28;20034;-81
2022/01/14 08:16:55;;;;;;;1.00;1.00;;;;;;;1.32;76.14;103054.44;5145030;28;19913;-80
2022/01/14 08:19:26;;;;;;;17.65;5.20;;;;;;;1.35;76.08;103054.59;5163351;28;20026;-80
2022/01/14 08:22:00;;;;;;;;;;;;;;;1.36;76.37;103056.38;5112124;28;20069;-80
2022/01/14 08:24:32;;;;;;;2.80;2.63;;;;;;;1.36;76.47;103054.66;5152571;28;20331;-80
2022/01/14 08:27:05;;;;;;;3.00;2.80;;;;;;;1.37;76.57;103055.53;5163883;28;20056;-80
2022/01/14 08:29:38;;;;;;;4.32;3.30;;;;;;;1.41;76.37;103060.94;5160422;28;20598;-80
2022/01/14 08:32:09;;;;;;;2.97;2.75;;;;;;;1.39;76.53;103046.16;5134249;28;20038;-79
2022/01/14 08:34:50;;;;;;;2.05;1.95;;;;;;;1.43;76.57;103053.28;5133053;28;20033;-79
2022/01/14 08:37:39;;;;;;;3.38;3.17;;;;;;;1.47;76.54;103039.66;5142538;28;20038;-79
2022/01/14 08:40:11;;;;;;;3.78;3.47;;;;;;;1.49;76.38;103034.56;5140836;28;20033;-79
2022/01/14 08:42:44;;;;;;;1.52;1.48;;;;;;;1.51;76.46;103031.25;5161309;28;20495;-78
2022/01/14 08:45:22;;;;;;;4.07;3.88;;;;;;;1.47;77.49;103034.47;5152062;28;20667;-78
2022/01/14 08:47:57;;;;;;;1.65;1.55;;;;;;;1.50;77.26;103029.47;5152360;28;20037;-78
2022/01/14 08:50:35;;;;;;;4.18;2.35;;;;;;;1.58;77.22;103034.97;5138144;28;20057;-80
2022/01/14 08:53:14;;;;;;;3.53;1.67;;;;;;;1.60;77.05;103032.50;5186712;28;20124;-80
2022/01/14 08:55:45;;;;;;;3.05;2.33;;;;;;;1.56;77.87;103040.09;5131697;28;20054;-80
2022/01/14 08:58:18;;;;;;;5.63;2.90;;;;;;;1.58;77.43;103029.81;5149864;28;20096;-79
2022/01/14 09:00:49;;;;;;;0.55;0.55;;;;;;;1.63;78.90;103019.66;5151234;28;20501;-79
2022/01/14 09:03:20;;;;;;;1.27;1.27;;;;;;;1.64;78.24;103024.03;5134169;28;20037;-80
2022/01/14 09:05:50;;;;;;;1.55;1.45;;;;;;;1.67;78.29;103021.59;5147705;28;20044;-79
2022/01/14 09:08:24;;;;;;;0.77;0.77;;;;;;;1.68;78.45;103018.22;5133218;28;20034;-80
2022/01/14 09:10:58;;;;;;;5.00;3.67;;;;;;;1.68;78.12;103007.84;5135237;28;20045;-81
2022/01/14 09:13:29;;;;;;;0.80;0.80;;;;;;;1.66;78.72;103010.34;5136317;28;20089;-80
2022/01/14 09:16:05;;;;;;;1.67;1.60;;;;;;;1.79;78.16;103022.16;5135817;28;20037;-80
2022/01/14 09:18:38;;;;;;;5.72;3.08;;;;;;;1.77;79.01;103005.69;5152299;28;20088;-81
2022/01/14 09:21:12;;;;;;;;;;;;;;;1.76;79.07;103014.28;5152802;28;20038;-81
2022/01/14 09:23:51;;;;;;;2.38;2.25;;;;;;;1.86;78.15;103018.16;5135321;28;19920;-81
2022/01/14 09:26:29;;;;;;;1.75;1.65;;;;;;;1.89;78.28;103016.59;5150857;28;20184;-80
2022/01/14 09:29:01;;;;;;;3.30;3.10;;;;;;;1.86;78.40;103012.97;5168787;28;20033;-81
2022/01/14 09:31:32;;;;;;;1.60;1.52;;;;;;;1.85;78.06;103016.38;5135917;28;20126;-81
2022/01/14 09:34:03;;;;;;;1.60;1.50;;;;;;;1.88;78.55;103017.41;5154177;28;20116;-81
2022/01/14 09:36:36;;;;;;;2.03;1.92;;;;;;;1.93;78.74;103019.34;5134348;28;20050;-81
2022/01/14 09:39:08;;;;;;;8.73;2.58;;;;;;;1.94;78.83;103021.13;5154727;28;20137;-80
2022/01/14 09:41:38;;;;;;;1.60;1.52;;;;;;;1.97;78.30;103021.25;5164959;28;20037;-82
2022/01/14 09:44:09;;;;;;;0.65;0.65;;;;;;;2.13;79.07;103034.06;5144099;28;20393;-81
2022/01/14 09:46:40;;;;;;;2.40;2.20;;;;;;;1.99;78.94;103033.44;5147919;28;20093;-83
2022/01/14 09:49:17;;;;;;;3.17;2.88;;;;;;;1.98;79.09;103041.13;5135253;28;20032;-80
2022/01/14 09:51:48;;;;;;;2.17;2.08;;;;;;;2.02;79.49;103043.06;5134446;28;20087;-80
2022/01/14 09:54:20;;;;;;;2.13;2.03;;;;;;;2.05;78.90;103043.19;5151246;28;20030;-82
2022/01/14 09:56:52;;;;;;;1.70;1.65;;;;;;;2.07;79.92;103053.63;5148746;28;20026;-80
2022/01/14 09:59:24;;;;;;;1.70;1.60;;;;;;;2.16;81.48;103057.53;5181228;28;20046;-80
2022/01/14 10:01:54;;;;;;;1.20;1.20;;;;;;;2.18;80.27;103074.03;5136353;28;20049;-82
2022/01/14 10:04:30;;;;;;;2.72;2.28;;;;;;;2.13;82.49;103066.88;5122534;28;20049;-79
2022/01/14 10:07:04;;;;;;;4.22;2.92;;;;;;;2.12;81.99;103059.91;5163725;28;20034;-79
2022/01/14 10:09:40;;;;;;;0.70;0.70;;;;;;;2.33;81.43;103089.34;5135212;28;20033;-82
2022/01/14 10:12:14;;;;;;;1.92;1.83;;;;;;;2.00;84.51;103083.53;5133457;28;20279;-80
2022/01/14 10:14:57;;;;;;;1.65;1.55;;;;;;;2.07;82.62;103079.53;5133113;28;20026;-80
2022/01/14 10:17:42;;;;;;;2.20;1.77;;;;;;;2.29;80.87;103090.06;5148283;28;20084;-79
2022/01/14 10:20:15;;;;;;;2.22;1.83;;;;;;;2.37;80.55;103090.38;5150505;28;20559;-82
2022/01/14 10:22:48;;;;;;;1.73;1.63;;;;;;;2.29;80.69;103096.91;5145733;28;20702;-82
2022/01/14 10:25:20;;;;;;;2.35;2.15;;;;;;;2.24;81.59;103098.44;5124684;28;20034;-82
2022/01/14 10:27:54;;;;;;;2.38;2.25;;;;;;;2.33;81.32;103096.25;5128952;28;20049;-80
2022/01/14 10:30:28;;;;;;;;;;;;;;;2.38;80.69;103094.75;5152038;28;20072;-81
2022/01/14 10:33:21;;;;;;;4.35;4.07;;;;;;;2.42;81.55;103093.19;5136169;28;19910;-82
2022/01/14 10:35:55;;;;;;;3.95;3.65;;;;;;;2.35;81.75;103086.88;5133325;28;20117;-81
2022/01/14 10:38:36;;;;;;;4.90;4.40;;;;;;;2.33;82.40;103067.75;5151020;28;20029;-79
2022/01/14 10:41:09;;;;;;;2.25;2.15;;;;;;;2.36;81.62;103078.25;5147978;28;20117;-80
2022/01/14 10:43:40;;;;;;;3.03;2.63;;;;;;;2.48;82.77;103084.00;5133842;28;20093;-79
2022/01/14 10:46:11;;;;;;;1.20;1.20;;;;;;;2.52;80.97;103062.56;5132886;28;20093;-79
2022/01/14 10:48:47;;;;;;;1.75;1.65;;;;;;;2.52;82.16;103065.16;5149980;28;20037;-80
2022/01/14 10:51:18;;;;;;;0.85;0.85;;;;;;;2.55;82.51;103058.34;5132609;28;20763;-79
2022/01/14 10:53:52;;;;;;;2.63;2.42;;;;;;;2.54;83.08;103064.34;5166276;28;20026;-79
2022/01/14 10:56:25;;;;;;;2.47;2.28;;;;;;;2.65;82.34;103051.03;5147137;28;20038;-79
2022/01/14 10:58:58;;;;;;;2.50;2.38;;;;;;;2.62;84.25;103048.31;5133160;28;20026;-79
2022/01/14 11:01:31;;;;;;;9.73;4.68;;;;;;;2.68;82.25;103047.69;5133683;28;20041;-79
2022/01/14 11:04:11;;;;;;;1.25;1.25;;;;;;;2.63;83.76;103046.59;5146796;28;20041;-79
2022/01/14 11:06:42;;;;;;;6.82;3.47;;;;;;;2.64;83.30;103038.91;5161621;28;20121;-78
2022/01/14 11:09:18;;;;;;;3.10;2.92;;;;;;;2.80;81.50;103030.06;5132843;28;20093;-78
2022/01/14 11:11:49;;;;;;;3.00;2.80;;;;;;;2.76;82.11;103030.75;5151366;28;20181;-78
2022/01/14 11:14:20;;;;;;;3.70;1.92;;;;;;;2.74;82.11;103032.41;5163558;28;20431;-78
2022/01/14 11:16:50;;;;;;;0.60;0.60;;;;;;;2.71;82.34;103029.66;5163541;28;20037;-78
2022/01/14 11:19:22;;;;;;;2.00;1.90;;;;;;;2.73;82.64;103028.03;5148333;28;20044;-78
2022/01/14 11:24:52;;;;;;;2.63;2.42;;;;;;;2.79;81.96;103028.28;5112641;28;20099;-78
2022/01/14 11:27:24;;;;;;;2.20;2.00;;;;;;;2.79;82.35;103028.28;5147689;28;20042;-78
2022/01/14 11:29:58;;;;;;;1.38;1.30;;;;;;;2.87;81.55;103017.34;5134798;28;20507;-78
2022/01/14 11:32:51;;;;;;;2.40;2.17;;;;;;;2.88;83.04;103016.53;5149160;28;20069;-78
2022/01/14 11:35:26;;;;;;;6.35;4.25;;;;;;;2.89;82.16;103018.28;5160949;28;20430;-79
2022/01/14 11:37:57;;;;;;;2.40;2.30;;;;;;;2.97;81.45;103024.69;5157118;28;20030;-79
2022/01/14 11:40:48;;;;;;;1.30;1.30;;;;;;;2.99;81.62;103015.28;5135502;28;20038;-79
2022/01/14 11:43:39;;;;;;;1.92;1.83;;;;;;;3.00;81.83;103017.03;5130222;28;20030;-79
2022/01/14 11:46:14;;;;;;;4.00;2.90;;;;;;;3.01;81.91;103012.72;5147511;28;20585;-79
2022/01/14 11:48:50;;;;;;;2.65;2.53;;;;;;;3.09;81.86;103017.44;5153855;28;20037;-79
2022/01/14 11:51:20;;;;;;;2.58;2.38;;;;;;;3.07;81.73;103012.97;5149253;28;20046;-79
2022/01/14 11:54:03;;;;;;;3.88;3.50;;;;;;;3.08;82.65;103014.75;5152910;28;20113;-80
2022/01/14 11:56:35;;;;;;;4.57;3.58;;;;;;;3.07;82.35;103010.38;5155129;28;20106;-79
2022/01/14 11:59:18;;;;;;;5.95;4.53;;;;;;;3.08;82.27;103014.75;5152875;28;20045;-79
2022/01/14 12:01:55;;;;;;;5.47;2.63;;;;;;;3.13;82.35;103008.94;5153367;28;20131;-80
2022/01/14 12:05:05;;;;;;;3.42;2.08;;;;;;;3.21;81.87;103008.34;5136075;28;20121;-80
2022/01/14 12:08:04;;;;;;;2.50;2.33;;;;;;;3.24;81.98;102998.13;5155658;28;20034;-80
2022/01/14 12:10:40;;;;;;;6.50;3.80;;;;;;;3.21;82.18;103000.56;5151842;28;20041;-81
2022/01/14 12:13:28;;;;;;;3.40;3.10;;;;;;;3.23;82.51;102994.63;5135324;28;20101;-80
2022/01/14 12:16:03;;;;;;;4.15;3.92;;;;;;;3.21;83.12;102988.50;5151545;28;20049;-80
2022/01/14 12:18:46;;;;;;;3.65;2.85;;;;;;;3.25;82.96;102989.50;5171938;28;20032;-80
2022/01/14 12:21:16;;;;;;;4.93;4.15;;;;;;;3.30;82.60;102990.56;5166167;28;20041;-80
2022/01/14 12:23:47;;;;;;;3.92;3.63;;;;;;;3.35;82.58;102978.63;5133118;28;20037;-80
2022/01/14 12:26:23;;;;;;;3.67;3.33;;;;;;;3.37;82.39;102984.78;5139924;28;20424;-83
2022/01/14 12:29:13;;;;;;;5.60;2.92;;;;;;;3.36;82.32;102979.53;5153326;28;20796;-80
2022/01/14 12:32:17;;;;;;;3.28;3.00;;;;;;;3.39;82.50;102977.09;5132666;28;20038;-80